• Join FlightAware (Why Join?)
  • Login
  • US Flag 
02:24AM EST


 

Airport Tracker/Info


-or-


 

Live Flight TrackerFlight Track Log ✈ N672DS ✈ 21-Mar-2014 ✈ KHPN - KDMW

Flight Track Log - Related Links

Times and Time Zones

All times are in EDT time to prevent confusion due to time zone crossing. See the N672DS flight status page for this flight to view local times or setup timezone preferences in your user account.

Time Position Orientation Groundspeed Altitude Reporting Facility
EDT Latitude Longitude Course Direction KTS MPH feet Rate Location/Type
08:37PM 40.0229 -76.0742 241° Southwest  Level FlightAware Approximate
08:38PM 40.0103 -76.1032 241° Southwest  Level FlightAware Approximate
08:39PM 39.9977 -76.1322 241° Southwest  Level FlightAware Approximate
08:40PM 39.9852 -76.1612 241° Southwest  Level FlightAware Approximate
08:41PM 39.9726 -76.1902 240° Southwest  Level FlightAware Approximate
08:42PM 39.9600 -76.2192 240° Southwest  Level FlightAware Approximate
08:43PM 39.9474 -76.2482 240° Southwest  Level FlightAware Approximate
08:44PM 39.9348 -76.2772 240° Southwest  Level FlightAware Approximate
08:45PM 39.9222 -76.3061 240° Southwest  Level FlightAware Approximate
08:46PM 39.9096 -76.3351 240° Southwest  Level FlightAware Approximate
08:47PM 39.8970 -76.3640 240° Southwest  Level FlightAware Approximate
08:48PM 39.8843 -76.3929 240° Southwest  Level FlightAware Approximate
08:49PM 39.8717 -76.4219 240° Southwest  Level FlightAware Approximate
08:50PM 39.8587 -76.4505 239° Southwest  Level FlightAware Approximate
08:51PM 39.8456 -76.4790 239° Southwest  Level FlightAware Approximate
08:52PM 39.8324 -76.5075 239° Southwest  Level FlightAware Approximate
08:53PM 39.8193 -76.5360 239° Southwest  Level FlightAware Approximate
08:54PM 39.8061 -76.5645 239° Southwest  Level FlightAware Approximate
08:55PM 39.7929 -76.5930 239° Southwest  Level FlightAware Approximate
08:56PM 39.7797 -76.6214 239° Southwest  Level FlightAware Approximate
08:57PM 39.7665 -76.6499 239° Southwest  Level FlightAware Approximate
08:58PM 39.7533 -76.6783 239° Southwest  Level FlightAware Approximate
08:59PM 39.7401 -76.7067 239° Southwest  Level FlightAware Approximate
09:00PM 39.7269 -76.7352 239° Southwest  Level FlightAware Approximate
09:01PM 39.7137 -76.7635 239° Southwest  Level FlightAware Approximate
09:02PM 39.7005 -76.7919 239° Southwest  Level FlightAware Approximate
09:03PM 39.6872 -76.8203 239° Southwest  Level FlightAware Approximate
09:04PM 39.6740 -76.8487 239° Southwest  Level FlightAware Approximate
09:05PM 39.6607 -76.8771 239° Southwest  Level FlightAware Approximate
09:06PM 39.6461 -76.9039 218° Southwest  Level FlightAware Approximate
09:07PM 39.6282 -76.9269 237° Southwest  Level FlightAware Approximate
09:08PM 39.6150 -76.9551 247° West  Level FlightAware Approximate
09:09PM 39.6048 -76.9855 247° West  Level FlightAware Approximate
09:10PM 39.6000 -77.0000 247° West  Level FlightAware Approximate
09:11PM 39.6083 -77.0077 North  Level Estimated
09:12PM 39.6083 -77.0077 247° West  Level Estimated
09:13PM 39.6083 -77.0077 144° Southeast  Level Estimated
09:14PM 39.6083 -77.0077 247° West  Level Estimated
09:15PM 39.6083 -77.0077 144° Southeast  Level Estimated
09:16PM 39.6083 -77.0077 247° West  Level Estimated
09:17PM 39.6083 -77.0077 144° Southeast  Level Estimated
09:18PM 39.6083 -77.0077 247° West  Level Estimated
09:19PM 39.6083 -77.0077 144° Southeast  Level Estimated
09:20PM 39.6083 -77.0077 247° West  Level Estimated
09:21PM 39.6083 -77.0077 144° Southeast  Level Estimated
09:22PM 39.6083 -77.0077 247° West  Level Estimated
09:23PM 39.6083 -77.0077 144° Southeast  Level Estimated
09:24PM 39.6083 -77.0077 247° West  Level Estimated
09:25PM 39.6083 -77.0077 144° Southeast  Level Estimated